Weather at Flugplatz Hahnweide

Public forecast

Using degrees Celsius for public forecast. Weather courtesy of forecast.io.

Closest aviation weather report (METAR) to Flugplatz Hahnweide

Closest report is Stuttgart Airport, 9.0 nm (16.6 km) WNW. Retrieved 2020/10/29 19:20 UTC (0 seconds ago):

EDDS 291920Z 20005KT 160V250 9999 RA FEW015 SCT038 10/08 Q1023 TEMPO NSW

Closest aviation forecast (TAF) to Flugplatz Hahnweide

Closest forecast is Stuttgart Airport, 9.0 nm (16.6 km) WNW. Retrieved 2020/10/29 18:27 UTC (53 minutes ago):

TAF TAF EDDS 291700Z 2918/3018 21004KT 9999 BKN035 PROB40 TEMPO 2918/3001 RA PROB30 TEMPO 2923/3002 22009KT BECMG 3008/3010 24009KT BECMG 3014/3016 26004KT